sensor_id;sensor_type;location;lat;lon;timestamp;temperature;humidity
15111;DHT22;7656;51.954;7.998;2023-10-31T00:00:21;14.00;99.90
15111;DHT22;7656;51.954;7.998;2023-10-31T00:04:42;14.00;99.90
15111;DHT22;7656;51.954;7.998;2023-10-31T00:09:04;14.10;99.90
15111;DHT22;7656;51.954;7.998;2023-10-31T00:13:25;14.10;99.90
15111;DHT22;7656;51.954;7.998;2023-10-31T00:17:46;14.10;99.90
15111;DHT22;7656;51.954;7.998;2023-10-31T00:22:07;14.10;99.90
15111;DHT22;7656;51.954;7.998;2023-10-31T00:26:28;14.10;99.90
15111;DHT22;7656;51.954;7.998;2023-10-31T00:30:49;14.20;99.90
15111;DHT22;7656;51.954;7.998;2023-10-31T00:35:10;14.00;99.90
15111;DHT22;7656;51.954;7.998;2023-10-31T00:39:33;14.00;99.90
15111;DHT22;7656;51.954;7.998;2023-10-31T00:43:54;14.00;99.90
15111;DHT22;7656;51.954;7.998;2023-10-31T00:48:16;14.20;99.90
15111;DHT22;7656;51.954;7.998;2023-10-31T00:52:37;14.30;99.90
15111;DHT22;7656;51.954;7.998;2023-10-31T00:56:58;14.10;99.90
15111;DHT22;7656;51.954;7.998;2023-10-31T01:01:19;14.00;99.90
15111;DHT22;7656;51.954;7.998;2023-10-31T01:05:40;13.90;99.90
15111;DHT22;7656;51.954;7.998;2023-10-31T01:10:02;13.70;99.90
15111;DHT22;7656;51.954;7.998;2023-10-31T01:14:25;13.70;99.90
15111;DHT22;7656;51.954;7.998;2023-10-31T01:18:46;13.90;99.90
15111;DHT22;7656;51.954;7.998;2023-10-31T01:23:07;13.80;99.90
15111;DHT22;7656;51.954;7.998;2023-10-31T01:27:28;13.80;99.90
15111;DHT22;7656;51.954;7.998;2023-10-31T01:31:49;13.60;99.90
15111;DHT22;7656;51.954;7.998;2023-10-31T01:36:10;13.50;99.90
15111;DHT22;7656;51.954;7.998;2023-10-31T01:40:33;13.30;99.90
15111;DHT22;7656;51.954;7.998;2023-10-31T01:44:55;13.20;99.90
15111;DHT22;7656;51.954;7.998;2023-10-31T01:49:16;13.00;99.90
15111;DHT22;7656;51.954;7.998;2023-10-31T01:53:38;12.80;99.90
15111;DHT22;7656;51.954;7.998;2023-10-31T01:57:59;12.60;99.90
15111;DHT22;7656;51.954;7.998;2023-10-31T02:02:22;12.40;99.90
15111;DHT22;7656;51.954;7.998;2023-10-31T02:06:44;12.20;99.90
15111;DHT22;7656;51.954;7.998;2023-10-31T02:11:06;11.90;99.90
15111;DHT22;7656;51.954;7.998;2023-10-31T02:15:30;11.80;99.90
15111;DHT22;7656;51.954;7.998;2023-10-31T02:19:51;11.80;99.90
15111;DHT22;7656;51.954;7.998;2023-10-31T02:24:12;11.60;99.90
15111;DHT22;7656;51.954;7.998;2023-10-31T02:28:33;11.60;99.90
15111;DHT22;7656;51.954;7.998;2023-10-31T02:32:54;11.50;99.90
15111;DHT22;7656;51.954;7.998;2023-10-31T02:37:15;11.50;99.90
15111;DHT22;7656;51.954;7.998;2023-10-31T02:41:36;11.50;99.90
15111;DHT22;7656;51.954;7.998;2023-10-31T02:45:57;11.50;99.90
15111;DHT22;7656;51.954;7.998;2023-10-31T02:50:19;11.40;99.90
15111;DHT22;7656;51.954;7.998;2023-10-31T02:54:40;11.40;99.90
15111;DHT22;7656;51.954;7.998;2023-10-31T02:59:01;11.40;99.90
15111;DHT22;7656;51.954;7.998;2023-10-31T03:03:22;11.30;99.90
15111;DHT22;7656;51.954;7.998;2023-10-31T03:07:43;11.20;99.90
15111;DHT22;7656;51.954;7.998;2023-10-31T03:12:06;11.20;99.90
15111;DHT22;7656;51.954;7.998;2023-10-31T03:16:27;11.20;99.90
15111;DHT22;7656;51.954;7.998;2023-10-31T03:20:48;11.20;99.90
15111;DHT22;7656;51.954;7.998;2023-10-31T03:25:09;11.10;99.90
15111;DHT22;7656;51.954;7.998;2023-10-31T03:29:30;11.00;99.90
15111;DHT22;7656;51.954;7.998;2023-10-31T03:33:51;11.10;99.90
15111;DHT22;7656;51.954;7.998;2023-10-31T03:38:13;11.10;99.90
15111;DHT22;7656;51.954;7.998;2023-10-31T03:42:34;11.10;99.90
15111;DHT22;7656;51.954;7.998;2023-10-31T03:46:56;11.10;99.90
15111;DHT22;7656;51.954;7.998;2023-10-31T03:51:17;11.10;99.90
15111;DHT22;7656;51.954;7.998;2023-10-31T03:55:39;11.10;99.90
15111;DHT22;7656;51.954;7.998;2023-10-31T04:00:00;11.00;99.90
15111;DHT22;7656;51.954;7.998;2023-10-31T04:04:21;10.90;99.90
15111;DHT22;7656;51.954;7.998;2023-10-31T04:08:42;10.90;99.90
15111;DHT22;7656;51.954;7.998;2023-10-31T04:13:03;11.00;99.90
15111;DHT22;7656;51.954;7.998;2023-10-31T04:17:24;11.00;99.90
15111;DHT22;7656;51.954;7.998;2023-10-31T04:21:45;10.90;99.90
15111;DHT22;7656;51.954;7.998;2023-10-31T04:26:06;10.90;99.90
15111;DHT22;7656;51.954;7.998;2023-10-31T04:30:28;11.10;99.90
15111;DHT22;7656;51.954;7.998;2023-10-31T04:34:49;11.00;99.90
15111;DHT22;7656;51.954;7.998;2023-10-31T04:39:10;10.80;99.90
15111;DHT22;7656;51.954;7.998;2023-10-31T04:43:31;11.00;99.90
15111;DHT22;7656;51.954;7.998;2023-10-31T04:47:53;11.00;99.90
15111;DHT22;7656;51.954;7.998;2023-10-31T04:52:14;11.10;99.90
15111;DHT22;7656;51.954;7.998;2023-10-31T04:56:36;11.20;99.90
15111;DHT22;7656;51.954;7.998;2023-10-31T05:00:57;11.20;99.90
15111;DHT22;7656;51.954;7.998;2023-10-31T05:05:18;11.20;99.90
15111;DHT22;7656;51.954;7.998;2023-10-31T05:09:41;11.20;99.90
15111;DHT22;7656;51.954;7.998;2023-10-31T05:14:02;11.10;99.90
15111;DHT22;7656;51.954;7.998;2023-10-31T05:18:23;11.10;99.90
15111;DHT22;7656;51.954;7.998;2023-10-31T05:22:44;11.10;99.90
15111;DHT22;7656;51.954;7.998;2023-10-31T05:27:05;11.20;99.90
15111;DHT22;7656;51.954;7.998;2023-10-31T05:31:28;11.20;99.90
15111;DHT22;7656;51.954;7.998;2023-10-31T05:35:49;11.30;99.90
15111;DHT22;7656;51.954;7.998;2023-10-31T05:40:12;11.40;99.90
15111;DHT22;7656;51.954;7.998;2023-10-31T05:44:33;11.30;99.90
15111;DHT22;7656;51.954;7.998;2023-10-31T05:48:54;11.40;99.90
15111;DHT22;7656;51.954;7.998;2023-10-31T05:53:15;11.30;99.90
15111;DHT22;7656;51.954;7.998;2023-10-31T05:57:36;11.30;99.90
15111;DHT22;7656;51.954;7.998;2023-10-31T06:01:58;11.20;99.90
15111;DHT22;7656;51.954;7.998;2023-10-31T06:06:19;11.30;99.90
15111;DHT22;7656;51.954;7.998;2023-10-31T06:10:40;11.40;99.90
15111;DHT22;7656;51.954;7.998;2023-10-31T06:15:01;11.30;99.90
15111;DHT22;7656;51.954;7.998;2023-10-31T06:19:23;11.20;99.90
15111;DHT22;7656;51.954;7.998;2023-10-31T06:23:44;11.20;99.90
15111;DHT22;7656;51.954;7.998;2023-10-31T06:28:06;11.10;99.90
15111;DHT22;7656;51.954;7.998;2023-10-31T06:32:27;11.10;99.90
15111;DHT22;7656;51.954;7.998;2023-10-31T06:36:48;11.20;99.90
15111;DHT22;7656;51.954;7.998;2023-10-31T06:41:10;11.10;99.90
15111;DHT22;7656;51.954;7.998;2023-10-31T06:45:31;11.10;99.90
15111;DHT22;7656;51.954;7.998;2023-10-31T06:49:52;11.20;99.90
15111;DHT22;7656;51.954;7.998;2023-10-31T06:54:13;11.10;99.90
15111;DHT22;7656;51.954;7.998;2023-10-31T06:58:34;11.00;99.90
15111;DHT22;7656;51.954;7.998;2023-10-31T07:02:55;10.80;99.90
15111;DHT22;7656;51.954;7.998;2023-10-31T07:07:16;10.90;99.90
15111;DHT22;7656;51.954;7.998;2023-10-31T07:11:37;10.90;99.90
15111;DHT22;7656;51.954;7.998;2023-10-31T07:15:58;10.90;99.90
15111;DHT22;7656;51.954;7.998;2023-10-31T07:20:19;10.90;99.90
15111;DHT22;7656;51.954;7.998;2023-10-31T07:24:40;11.10;99.90
15111;DHT22;7656;51.954;7.998;2023-10-31T07:29:01;11.40;99.90
15111;DHT22;7656;51.954;7.998;2023-10-31T07:33:22;11.80;99.90
15111;DHT22;7656;51.954;7.998;2023-10-31T07:37:43;12.00;99.90
15111;DHT22;7656;51.954;7.998;2023-10-31T07:42:05;12.20;99.90
15111;DHT22;7656;51.954;7.998;2023-10-31T07:46:26;12.70;99.90
15111;DHT22;7656;51.954;7.998;2023-10-31T07:50:47;12.90;99.90
15111;DHT22;7656;51.954;7.998;2023-10-31T07:55:08;12.90;99.90
15111;DHT22;7656;51.954;7.998;2023-10-31T07:59:35;13.30;99.90
15111;DHT22;7656;51.954;7.998;2023-10-31T08:03:56;13.60;99.90
15111;DHT22;7656;51.954;7.998;2023-10-31T08:08:17;13.90;99.90
15111;DHT22;7656;51.954;7.998;2023-10-31T08:12:38;13.90;99.90
15111;DHT22;7656;51.954;7.998;2023-10-31T08:17:00;13.60;99.90
15111;DHT22;7656;51.954;7.998;2023-10-31T08:21:21;13.10;99.90
15111;DHT22;7656;51.954;7.998;2023-10-31T08:25:42;12.90;99.90
15111;DHT22;7656;51.954;7.998;2023-10-31T08:30:03;13.00;99.90
15111;DHT22;7656;51.954;7.998;2023-10-31T08:34:25;12.80;99.90
15111;DHT22;7656;51.954;7.998;2023-10-31T08:38:46;12.60;99.90
15111;DHT22;7656;51.954;7.998;2023-10-31T08:43:07;12.60;99.90
15111;DHT22;7656;51.954;7.998;2023-10-31T08:47:28;12.90;99.90
15111;DHT22;7656;51.954;7.998;2023-10-31T08:51:49;13.10;99.90
15111;DHT22;7656;51.954;7.998;2023-10-31T08:56:10;14.10;99.90
15111;DHT22;7656;51.954;7.998;2023-10-31T09:00:31;14.70;99.90
15111;DHT22;7656;51.954;7.998;2023-10-31T09:04:52;14.70;99.90
15111;DHT22;7656;51.954;7.998;2023-10-31T09:09:14;14.90;99.90
15111;DHT22;7656;51.954;7.998;2023-10-31T09:13:35;14.80;99.90
15111;DHT22;7656;51.954;7.998;2023-10-31T09:17:56;15.40;99.90
15111;DHT22;7656;51.954;7.998;2023-10-31T09:22:18;15.80;99.90
15111;DHT22;7656;51.954;7.998;2023-10-31T09:26:42;15.70;99.90
15111;DHT22;7656;51.954;7.998;2023-10-31T09:31:04;15.20;99.90
15111;DHT22;7656;51.954;7.998;2023-10-31T09:35:25;14.60;99.90
15111;DHT22;7656;51.954;7.998;2023-10-31T09:39:47;14.10;99.90
15111;DHT22;7656;51.954;7.998;2023-10-31T09:44:08;13.90;99.90
15111;DHT22;7656;51.954;7.998;2023-10-31T09:48:29;13.70;99.90
15111;DHT22;7656;51.954;7.998;2023-10-31T09:52:51;13.40;99.90
15111;DHT22;7656;51.954;7.998;2023-10-31T09:57:14;13.20;99.90
15111;DHT22;7656;51.954;7.998;2023-10-31T10:01:36;13.10;99.90
15111;DHT22;7656;51.954;7.998;2023-10-31T10:05:57;13.00;99.90
15111;DHT22;7656;51.954;7.998;2023-10-31T10:10:18;12.90;99.90
15111;DHT22;7656;51.954;7.998;2023-10-31T10:14:40;12.90;99.90
15111;DHT22;7656;51.954;7.998;2023-10-31T10:19:18;13.00;99.90
15111;DHT22;7656;51.954;7.998;2023-10-31T10:23:42;13.30;99.90
15111;DHT22;7656;51.954;7.998;2023-10-31T10:28:03;13.50;99.90
15111;DHT22;7656;51.954;7.998;2023-10-31T10:32:25;13.30;99.90
15111;DHT22;7656;51.954;7.998;2023-10-31T10:36:48;13.30;99.90
15111;DHT22;7656;51.954;7.998;2023-10-31T10:41:11;13.20;99.90
15111;DHT22;7656;51.954;7.998;2023-10-31T10:45:33;12.60;99.90
15111;DHT22;7656;51.954;7.998;2023-10-31T10:49:58;12.50;99.90
15111;DHT22;7656;51.954;7.998;2023-10-31T10:54:27;12.80;99.90
15111;DHT22;7656;51.954;7.998;2023-10-31T10:59:15;12.50;99.90
15111;DHT22;7656;51.954;7.998;2023-10-31T11:03:40;12.60;99.90
15111;DHT22;7656;51.954;7.998;2023-10-31T11:08:01;12.60;99.90
15111;DHT22;7656;51.954;7.998;2023-10-31T11:12:24;12.70;99.90
15111;DHT22;7656;51.954;7.998;2023-10-31T11:16:51;12.60;99.90
15111;DHT22;7656;51.954;7.998;2023-10-31T11:21:13;12.60;99.90
15111;DHT22;7656;51.954;7.998;2023-10-31T11:25:42;12.70;99.90
15111;DHT22;7656;51.954;7.998;2023-10-31T11:30:08;12.80;99.90
15111;DHT22;7656;51.954;7.998;2023-10-31T11:34:42;13.00;99.90
15111;DHT22;7656;51.954;7.998;2023-10-31T11:39:19;12.90;99.90
15111;DHT22;7656;51.954;7.998;2023-10-31T11:48:04;13.10;99.90
15111;DHT22;7656;51.954;7.998;2023-10-31T11:52:25;13.10;99.90
15111;DHT22;7656;51.954;7.998;2023-10-31T11:56:51;13.30;99.90
15111;DHT22;7656;51.954;7.998;2023-10-31T12:01:13;13.40;99.90
15111;DHT22;7656;51.954;7.998;2023-10-31T12:05:34;13.60;99.90
15111;DHT22;7656;51.954;7.998;2023-10-31T12:09:55;13.60;99.90
15111;DHT22;7656;51.954;7.998;2023-10-31T12:14:18;13.40;99.90
15111;DHT22;7656;51.954;7.998;2023-10-31T12:18:41;13.30;99.90
15111;DHT22;7656;51.954;7.998;2023-10-31T12:23:03;13.50;99.90
15111;DHT22;7656;51.954;7.998;2023-10-31T12:27:24;13.50;99.90
15111;DHT22;7656;51.954;7.998;2023-10-31T12:36:12;13.80;99.90
15111;DHT22;7656;51.954;7.998;2023-10-31T12:40:34;14.00;99.90
15111;DHT22;7656;51.954;7.998;2023-10-31T12:44:55;13.90;99.90
15111;DHT22;7656;51.954;7.998;2023-10-31T12:49:18;13.60;99.90
15111;DHT22;7656;51.954;7.998;2023-10-31T12:53:40;13.70;99.90
15111;DHT22;7656;51.954;7.998;2023-10-31T12:58:01;13.80;99.90
15111;DHT22;7656;51.954;7.998;2023-10-31T13:02:22;14.00;99.90
15111;DHT22;7656;51.954;7.998;2023-10-31T13:11:19;14.10;99.90
15111;DHT22;7656;51.954;7.998;2023-10-31T13:15:46;13.80;99.90
15111;DHT22;7656;51.954;7.998;2023-10-31T13:20:08;13.70;99.90
15111;DHT22;7656;51.954;7.998;2023-10-31T13:24:30;13.60;99.90
15111;DHT22;7656;51.954;7.998;2023-10-31T13:28:52;13.60;99.90
15111;DHT22;7656;51.954;7.998;2023-10-31T13:33:13;13.60;99.90
15111;DHT22;7656;51.954;7.998;2023-10-31T13:37:34;13.70;99.90
15111;DHT22;7656;51.954;7.998;2023-10-31T13:41:56;13.60;99.90
15111;DHT22;7656;51.954;7.998;2023-10-31T13:46:17;13.60;99.90
15111;DHT22;7656;51.954;7.998;2023-10-31T13:50:38;13.60;99.90
15111;DHT22;7656;51.954;7.998;2023-10-31T13:54:59;13.70;99.90
15111;DHT22;7656;51.954;7.998;2023-10-31T13:59:20;13.70;99.90
15111;DHT22;7656;51.954;7.998;2023-10-31T14:03:41;13.80;99.90
15111;DHT22;7656;51.954;7.998;2023-10-31T14:08:02;13.90;99.90
15111;DHT22;7656;51.954;7.998;2023-10-31T14:12:24;13.90;99.90
15111;DHT22;7656;51.954;7.998;2023-10-31T14:16:46;14.00;99.90
15111;DHT22;7656;51.954;7.998;2023-10-31T14:21:10;13.90;99.90
15111;DHT22;7656;51.954;7.998;2023-10-31T14:25:31;14.00;99.90
15111;DHT22;7656;51.954;7.998;2023-10-31T14:29:52;13.90;99.90
15111;DHT22;7656;51.954;7.998;2023-10-31T14:34:14;14.10;99.90
15111;DHT22;7656;51.954;7.998;2023-10-31T14:38:35;14.20;99.90
15111;DHT22;7656;51.954;7.998;2023-10-31T14:42:56;14.40;99.90
15111;DHT22;7656;51.954;7.998;2023-10-31T14:47:17;14.40;99.90
15111;DHT22;7656;51.954;7.998;2023-10-31T14:51:38;14.40;99.90
15111;DHT22;7656;51.954;7.998;2023-10-31T14:55:59;14.10;99.90
15111;DHT22;7656;51.954;7.998;2023-10-31T15:00:22;14.00;99.90
15111;DHT22;7656;51.954;7.998;2023-10-31T15:04:43;13.60;99.90
15111;DHT22;7656;51.954;7.998;2023-10-31T15:09:04;13.70;99.90
15111;DHT22;7656;51.954;7.998;2023-10-31T15:13:26;13.80;99.90
15111;DHT22;7656;51.954;7.998;2023-10-31T15:17:47;13.90;99.90
15111;DHT22;7656;51.954;7.998;2023-10-31T15:22:08;13.80;99.90
15111;DHT22;7656;51.954;7.998;2023-10-31T15:26:29;13.80;99.90
15111;DHT22;7656;51.954;7.998;2023-10-31T15:30:51;13.80;99.90
15111;DHT22;7656;51.954;7.998;2023-10-31T15:35:12;13.90;99.90
15111;DHT22;7656;51.954;7.998;2023-10-31T15:39:33;13.60;99.90
15111;DHT22;7656;51.954;7.998;2023-10-31T15:43:55;13.40;99.90
15111;DHT22;7656;51.954;7.998;2023-10-31T15:48:16;13.20;99.90
15111;DHT22;7656;51.954;7.998;2023-10-31T15:52:37;13.20;99.90
15111;DHT22;7656;51.954;7.998;2023-10-31T15:56:58;13.10;99.90
15111;DHT22;7656;51.954;7.998;2023-10-31T16:01:20;13.10;99.90
15111;DHT22;7656;51.954;7.998;2023-10-31T16:05:41;13.20;99.90
15111;DHT22;7656;51.954;7.998;2023-10-31T16:10:03;13.20;99.90
15111;DHT22;7656;51.954;7.998;2023-10-31T16:14:25;13.10;99.90
15111;DHT22;7656;51.954;7.998;2023-10-31T16:18:46;13.10;99.90
15111;DHT22;7656;51.954;7.998;2023-10-31T16:23:07;13.00;99.90
15111;DHT22;7656;51.954;7.998;2023-10-31T16:27:28;13.10;99.90
15111;DHT22;7656;51.954;7.998;2023-10-31T16:31:49;13.20;99.90
15111;DHT22;7656;51.954;7.998;2023-10-31T16:36:10;13.20;99.90
15111;DHT22;7656;51.954;7.998;2023-10-31T16:40:31;13.30;99.90
15111;DHT22;7656;51.954;7.998;2023-10-31T16:44:53;13.30;99.90
15111;DHT22;7656;51.954;7.998;2023-10-31T16:49:14;13.40;99.90
15111;DHT22;7656;51.954;7.998;2023-10-31T16:53:37;13.50;99.90
15111;DHT22;7656;51.954;7.998;2023-10-31T16:57:59;13.50;99.90
15111;DHT22;7656;51.954;7.998;2023-10-31T17:02:22;13.50;99.90
15111;DHT22;7656;51.954;7.998;2023-10-31T17:06:43;13.40;99.90
15111;DHT22;7656;51.954;7.998;2023-10-31T17:11:04;13.40;99.90
15111;DHT22;7656;51.954;7.998;2023-10-31T17:15:26;13.40;99.90
15111;DHT22;7656;51.954;7.998;2023-10-31T17:19:47;13.30;99.90
15111;DHT22;7656;51.954;7.998;2023-10-31T17:24:08;13.30;99.90
15111;DHT22;7656;51.954;7.998;2023-10-31T17:28:30;13.20;99.90
15111;DHT22;7656;51.954;7.998;2023-10-31T17:32:55;12.90;99.90
15111;DHT22;7656;51.954;7.998;2023-10-31T17:37:16;12.50;99.90
15111;DHT22;7656;51.954;7.998;2023-10-31T17:41:37;12.60;99.90
15111;DHT22;7656;51.954;7.998;2023-10-31T17:45:59;12.60;99.90
15111;DHT22;7656;51.954;7.998;2023-10-31T17:50:20;12.70;99.90
15111;DHT22;7656;51.954;7.998;2023-10-31T17:54:41;12.60;99.90
15111;DHT22;7656;51.954;7.998;2023-10-31T17:59:02;12.60;99.90
15111;DHT22;7656;51.954;7.998;2023-10-31T18:03:24;12.70;99.90
15111;DHT22;7656;51.954;7.998;2023-10-31T18:07:45;12.60;99.90
15111;DHT22;7656;51.954;7.998;2023-10-31T18:12:06;12.50;99.90
15111;DHT22;7656;51.954;7.998;2023-10-31T18:16:28;12.40;99.90
15111;DHT22;7656;51.954;7.998;2023-10-31T18:20:49;12.30;99.90
15111;DHT22;7656;51.954;7.998;2023-10-31T18:25:12;12.30;99.90
15111;DHT22;7656;51.954;7.998;2023-10-31T18:29:33;12.50;99.90
15111;DHT22;7656;51.954;7.998;2023-10-31T18:33:54;12.10;99.90
15111;DHT22;7656;51.954;7.998;2023-10-31T18:38:15;12.30;99.90
15111;DHT22;7656;51.954;7.998;2023-10-31T18:42:36;12.30;99.90
15111;DHT22;7656;51.954;7.998;2023-10-31T18:46:58;12.30;99.90
15111;DHT22;7656;51.954;7.998;2023-10-31T18:51:19;12.40;99.90
15111;DHT22;7656;51.954;7.998;2023-10-31T18:55:41;12.40;99.90
15111;DHT22;7656;51.954;7.998;2023-10-31T19:00:02;12.50;99.90
15111;DHT22;7656;51.954;7.998;2023-10-31T19:04:25;12.50;99.90
15111;DHT22;7656;51.954;7.998;2023-10-31T19:08:46;12.50;99.90
15111;DHT22;7656;51.954;7.998;2023-10-31T19:13:07;12.40;99.90
15111;DHT22;7656;51.954;7.998;2023-10-31T19:17:28;12.40;99.90
15111;DHT22;7656;51.954;7.998;2023-10-31T19:21:50;12.30;99.90
15111;DHT22;7656;51.954;7.998;2023-10-31T19:26:11;12.20;99.90
15111;DHT22;7656;51.954;7.998;2023-10-31T19:30:32;12.20;99.90
15111;DHT22;7656;51.954;7.998;2023-10-31T19:34:53;12.30;99.90
15111;DHT22;7656;51.954;7.998;2023-10-31T19:39:14;12.10;99.90
15111;DHT22;7656;51.954;7.998;2023-10-31T19:43:36;12.20;99.90
15111;DHT22;7656;51.954;7.998;2023-10-31T19:47:57;12.10;99.90
15111;DHT22;7656;51.954;7.998;2023-10-31T19:52:18;12.10;99.90
15111;DHT22;7656;51.954;7.998;2023-10-31T19:56:39;12.10;99.90
15111;DHT22;7656;51.954;7.998;2023-10-31T20:01:01;12.00;99.90
15111;DHT22;7656;51.954;7.998;2023-10-31T20:05:22;11.90;99.90
15111;DHT22;7656;51.954;7.998;2023-10-31T20:09:43;11.80;99.90
15111;DHT22;7656;51.954;7.998;2023-10-31T20:14:04;11.80;99.90
15111;DHT22;7656;51.954;7.998;2023-10-31T20:18:25;11.90;99.90
15111;DHT22;7656;51.954;7.998;2023-10-31T20:22:48;11.80;99.90
15111;DHT22;7656;51.954;7.998;2023-10-31T20:27:09;11.90;99.90
15111;DHT22;7656;51.954;7.998;2023-10-31T20:31:30;11.90;99.90
15111;DHT22;7656;51.954;7.998;2023-10-31T20:35:51;11.80;99.90
15111;DHT22;7656;51.954;7.998;2023-10-31T20:40:12;11.80;99.90
15111;DHT22;7656;51.954;7.998;2023-10-31T20:44:36;11.90;99.90
15111;DHT22;7656;51.954;7.998;2023-10-31T20:48:57;11.80;99.90
15111;DHT22;7656;51.954;7.998;2023-10-31T20:53:18;11.90;99.90
15111;DHT22;7656;51.954;7.998;2023-10-31T20:57:39;11.80;99.90
15111;DHT22;7656;51.954;7.998;2023-10-31T21:02:00;11.70;99.90
15111;DHT22;7656;51.954;7.998;2023-10-31T21:06:21;11.70;99.90
15111;DHT22;7656;51.954;7.998;2023-10-31T21:10:45;11.90;99.90
15111;DHT22;7656;51.954;7.998;2023-10-31T21:15:07;12.00;99.90
15111;DHT22;7656;51.954;7.998;2023-10-31T21:19:28;12.00;99.90
15111;DHT22;7656;51.954;7.998;2023-10-31T21:23:49;12.00;99.90
15111;DHT22;7656;51.954;7.998;2023-10-31T21:28:10;12.00;99.90
15111;DHT22;7656;51.954;7.998;2023-10-31T21:32:32;12.00;99.90
15111;DHT22;7656;51.954;7.998;2023-10-31T21:36:53;12.10;99.90
15111;DHT22;7656;51.954;7.998;2023-10-31T21:41:15;12.10;99.90
15111;DHT22;7656;51.954;7.998;2023-10-31T21:45:36;11.80;99.90
15111;DHT22;7656;51.954;7.998;2023-10-31T21:49:57;11.80;99.90
15111;DHT22;7656;51.954;7.998;2023-10-31T21:54:19;11.90;99.90
15111;DHT22;7656;51.954;7.998;2023-10-31T21:58:42;11.90;99.90
15111;DHT22;7656;51.954;7.998;2023-10-31T22:03:03;12.00;99.90
15111;DHT22;7656;51.954;7.998;2023-10-31T22:07:24;11.90;99.90
15111;DHT22;7656;51.954;7.998;2023-10-31T22:11:45;11.80;99.90
15111;DHT22;7656;51.954;7.998;2023-10-31T22:16:06;12.00;99.90
15111;DHT22;7656;51.954;7.998;2023-10-31T22:20:28;11.80;99.90
15111;DHT22;7656;51.954;7.998;2023-10-31T22:24:49;11.80;99.90
15111;DHT22;7656;51.954;7.998;2023-10-31T22:29:10;11.80;99.90
15111;DHT22;7656;51.954;7.998;2023-10-31T22:33:32;11.90;99.90
15111;DHT22;7656;51.954;7.998;2023-10-31T22:37:53;12.00;99.90
15111;DHT22;7656;51.954;7.998;2023-10-31T22:42:14;12.00;99.90
15111;DHT22;7656;51.954;7.998;2023-10-31T22:46:35;12.10;99.90
15111;DHT22;7656;51.954;7.998;2023-10-31T22:50:56;12.30;99.90
15111;DHT22;7656;51.954;7.998;2023-10-31T22:55:17;12.50;99.90
15111;DHT22;7656;51.954;7.998;2023-10-31T22:59:38;12.50;99.90
15111;DHT22;7656;51.954;7.998;2023-10-31T23:03:59;12.50;99.90
15111;DHT22;7656;51.954;7.998;2023-10-31T23:08:20;12.40;99.90
15111;DHT22;7656;51.954;7.998;2023-10-31T23:12:41;12.40;99.90
15111;DHT22;7656;51.954;7.998;2023-10-31T23:17:03;12.30;99.90
15111;DHT22;7656;51.954;7.998;2023-10-31T23:21:24;12.30;99.90
15111;DHT22;7656;51.954;7.998;2023-10-31T23:25:45;12.40;99.90
15111;DHT22;7656;51.954;7.998;2023-10-31T23:30:08;12.40;99.90
15111;DHT22;7656;51.954;7.998;2023-10-31T23:34:30;12.20;99.90
15111;DHT22;7656;51.954;7.998;2023-10-31T23:38:51;12.40;99.90
15111;DHT22;7656;51.954;7.998;2023-10-31T23:43:13;12.40;99.90
15111;DHT22;7656;51.954;7.998;2023-10-31T23:47:34;12.50;99.90
15111;DHT22;7656;51.954;7.998;2023-10-31T23:51:55;12.50;99.90
15111;DHT22;7656;51.954;7.998;2023-10-31T23:56:16;12.60;99.90
